Latest Weather Observations for Alva Beach

IDQ60801

Issued at 7:52 am EST Friday 22 October 2021 (issued every 10 minutes, with the page automatically refreshed every 10 minutes)

About weather observations | Map of weather stations | Latest weather observations for QLD | Other Formats
Station Details ID: 033295 Name: ALVA BEACH Lat: -19.46 Lon: 147.48 Height: 7.5 m
Data from the previous 72 hours. | See also: Recent months at Alva Beach
Date/Time
EST
Temp
°C
App
Temp
°C
Dew
Point
°C
Rel
Hum
%
Delta-T
°C
Wind Press
QNH
hPa
Press
MSL
hPa
Rain since
9am
mm
Dir  Spd
km/h
Gust
km/h
Spd
kts
Gust
kts
22/07:30am 27.7 30.1 23.7 79 2.7 N 17 22 9 12 1014.0 1014.0 0.2
22/07:00am 27.2 29.6 23.7 81 2.4 NNE 17 22 9 12 1013.5 1013.5 0.2
22/06:30am 26.4 28.3 23.5 84 2.0 NNE 19 24 10 13 1013.1 1013.1 0.2
22/06:00am 26.0 27.6 23.9 88 1.4 NNE 22 24 12 13 1012.7 1012.7 0.2
22/05:30am 25.9 28.0 23.8 88 1.4 NNE 19 24 10 13 1012.3 1012.3 0.2
22/05:00am 25.8 27.7 23.5 87 1.6 N 19 22 10 12 1012.0 1012.0 0.2
22/04:30am 25.8 28.1 23.5 87 1.6 N 17 24 9 13 1011.7 1011.7 0.2
22/04:00am 25.9 28.3 23.6 87 1.6 N 17 22 9 12 1011.5 1011.5 0.2
22/03:30am 25.9 28.6 23.4 86 1.7 N 15 22 8 12 1011.2 1011.2 0.2
22/03:00am 26.0 27.9 23.5 86 1.7 N 19 24 10 13 1011.1 1011.1 0.2
22/02:30am 26.1 27.9 23.6 86 1.7 NNE 20 28 11 15 1011.0 1011.0 0.2
22/02:00am 26.1 27.2 23.6 86 1.7 NNE 24 32 13 17 1011.1 1011.1 0.2
22/01:30am 26.2 26.9 23.7 86 1.7 NNE 26 32 14 17 1011.0 1011.0 0.2
22/01:00am 26.2 27.3 23.7 86 1.7 NNE 24 30 13 16 1011.5 1011.5 0.2
22/12:30am 26.4 28.1 24.1 87 1.6 NNE 22 28 12 15 1011.5 1011.5 0.2
22/12:00am 26.5 28.1 23.8 85 1.9 N 22 30 12 16 1011.7 1011.7 0.2
 
Date/Time
EST
Temp
°C
App
Temp
°C
Dew
Point
°C
Rel
Hum
%
Delta-T
°C
Wind Press
QNH
hPa
Press
MSL
hPa
Rain since
9am
mm
Dir  Spd
km/h
Gust
km/h
Spd
kts
Gust
kts
21/11:30pm 26.6 28.9 24.1 86 1.7 N 19 28 10 15 1012.1 1012.1 0.2
21/11:00pm 26.5 28.5 23.6 84 2.0 N 19 26 10 14 1012.0 1012.0 0.2
21/10:30pm 26.5 28.3 23.6 84 2.0 N 20 30 11 16 1012.2 1012.2 0.2
21/10:00pm 26.6 28.7 23.7 84 2.0 N 19 30 10 16 1012.3 1012.3 0.2
21/09:30pm 26.6 28.4 23.5 83 2.1 N 20 32 11 17 1012.2 1012.2 0.2
21/09:00pm 26.6 28.2 23.9 85 1.9 N 22 32 12 17 1011.8 1011.8 0.2
21/08:30pm 26.7 28.4 24.0 85 1.9 N 22 28 12 15 1011.7 1011.7 0.2
21/08:00pm 26.7 28.6 23.8 84 2.0 N 20 30 11 16 1011.6 1011.6 0.2
21/07:30pm 26.6 28.0 23.5 83 2.1 N 22 30 12 16 1011.3 1011.3 0.2
21/07:00pm 26.6 28.5 23.7 84 2.0 N 20 30 11 16 1010.8 1010.8 0.2
21/06:30pm 26.7 28.0 23.4 82 2.3 N 22 30 12 16 1010.5 1010.5 0.2
21/06:00pm 26.8 27.8 23.5 82 2.3 NNE 24 30 13 16 1010.2 1010.2 0.2
21/05:30pm 27.2 27.9 23.7 81 2.4 NNE 26 32 14 17 1009.6 1009.6 0.2
21/05:00pm 27.4 28.1 23.0 77 3.0 NNE 24 30 13 16 1009.4 1009.4 0.2
21/04:30pm 28.1 29.1 24.1 79 2.8 NNE 26 33 14 18 1009.0 1009.0 0.2
21/04:00pm 28.4 30.0 23.8 76 3.2 NNE 22 30 12 16 1009.1 1009.1 0.2
21/03:30pm 28.2 29.3 23.6 76 3.2 NNE 24 32 13 17 1009.2 1009.2 0.2
21/03:00pm 28.3 29.0 23.0 73 3.6 N 24 32 13 17 1009.4 1009.4 0.2
21/02:30pm 28.9 30.3 23.6 73 3.6 N 22 30 12 16 1009.6 1009.6 0.2
21/02:00pm 29.0 30.9 23.7 73 3.7 N 20 32 11 17 1009.8 1009.8 0.2
21/01:30pm 28.9 30.5 23.3 72 3.8 N 20 32 11 17 1010.0 1010.0 0.2
21/01:00pm 28.3 30.3 23.9 77 3.0 N 20 30 11 16 1010.7 1010.7 0.2
21/12:30pm 28.9 30.9 24.5 77 3.1 N 22 32 12 17 1010.9 1010.9 0.2
21/12:00pm 28.9 29.8 24.0 75 3.4 N 26 32 14 17 1011.2 1011.2 0.2
21/11:30am 29.2 30.1 23.9 73 3.7 NNE 26 35 14 19 1011.6 1011.6 0.2
21/11:00am 29.1 29.6 24.0 74 3.5 NNE 28 33 15 18 1012.0 1012.0 0.2
21/10:30am 28.8 29.4 24.1 76 3.3 NNE 28 33 15 18 1012.0 1012.0 0.2
21/10:00am 28.7 29.1 23.8 75 3.4 NNE 28 33 15 18 1012.0 1012.0 0.0
21/09:30am 28.4 28.1 23.8 76 3.2 NNE 32 37 17 20 1012.4 1012.4 0.0
21/09:00am 28.3 28.1 24.1 78 2.9 NNE 32 37 17 20 1012.2 1012.2 5.8
21/08:30am 27.8 27.8 23.8 79 2.8 NNE 30 35 16 19 1012.2 1012.2 5.8
21/08:00am 27.4 26.9 23.6 80 2.6 NNE 32 37 17 20 1011.8 1011.8 5.8
21/07:30am 27.1 26.7 24.0 83 2.1 NNE 33 39 18 21 1011.6 1011.6 5.8
21/07:00am 26.6 26.3 23.9 85 1.9 NE 32 37 17 20 1011.6 1011.6 5.8
21/06:30am 26.0 26.2 23.5 86 1.7 NE 28 33 15 18 1011.3 1011.3 5.8
21/06:00am 25.8 25.7 23.5 87 1.6 NE 30 33 16 18 1011.0 1011.0 5.8
21/05:30am 25.8 25.7 23.5 87 1.6 NNE 30 35 16 19 1010.7 1010.7 5.8
21/05:00am 25.9 26.3 23.8 88 1.4 NNE 28 33 15 18 1010.4 1010.4 5.6
21/04:30am 25.8 25.9 23.3 86 1.7 NNE 28 32 15 17 1010.6 1010.6 3.6
21/04:00am 25.8 26.9 23.7 88 1.4 NE 24 28 13 15 1010.4 1010.4 1.4
21/03:30am 25.7 26.4 23.6 88 1.4 NE 26 30 14 16 1010.4 1010.4 0.2
21/03:00am 25.7 25.9 23.4 87 1.6 NE 28 32 15 17 1010.2 1010.2 0.2
21/02:30am 25.8 25.4 23.1 85 1.8 NNE 30 35 16 19 1010.1 1010.1 0.2
21/02:00am 25.7 25.5 22.8 84 2.0 NNE 28 32 15 17 1010.4 1010.4 0.2
21/01:30am 25.6 25.1 22.1 81 2.3 NE 28 33 15 18 1010.5 1010.5 0.2
21/01:00am 25.8 25.5 22.5 82 2.2 NE 28 32 15 17 1010.9 1010.9 0.2
21/12:30am 25.7 24.8 22.2 81 2.3 NE 30 35 16 19 1011.5 1011.5 0.2
21/12:00am 25.8 25.5 23.3 86 1.7 NE 30 35 16 19 1012.0 1012.0 0.2
 
Date/Time
EST
Temp
°C
App
Temp
°C
Dew
Point
°C
Rel
Hum
%
Delta-T
°C
Wind Press
QNH
hPa
Press
MSL
hPa
Rain since
9am
mm
Dir  Spd
km/h
Gust
km/h
Spd
kts
Gust
kts
20/11:30pm 26.8 29.0 24.3 86 1.7 NNE 20 24 11 13 1012.3 1012.3 0.2
20/11:00pm 26.5 27.7 23.8 85 1.9 NNE 24 30 13 16 1012.4 1012.4 0.2
20/10:30pm 26.6 27.7 24.3 87 1.6 NNE 26 32 14 17 1012.1 1012.1 0.2
20/10:00pm 26.7 26.6 24.2 86 1.7 NE 32 35 17 19 1012.0 1012.0 0.2
20/09:30pm 26.8 27.2 24.5 87 1.6 NE 30 35 16 19 1011.7 1011.7 0.2
20/09:00pm 26.7 26.8 24.0 85 1.9 NNE 30 35 16 19 1011.5 1011.5 0.2
20/08:30pm 26.8 27.1 24.3 86 1.7 NNE 30 35 16 19 1011.4 1011.4 0.2
20/08:00pm 26.8 28.0 23.9 84 2.0 NNE 24 32 13 17 1010.8 1010.8 0.2
20/07:30pm 27.0 29.4 24.3 85 1.9 N 19 28 10 15 1010.2 1010.2 0.2
20/07:00pm 26.6 29.7 23.5 83 2.1 NNW 13 22 7 12 1009.5 1009.5 0.2
20/06:30pm 26.7 28.9 23.2 81 2.4 NNW 17 30 9 16 1009.4 1009.4 0.2
20/06:00pm 27.1 29.5 23.6 81 2.4 N 17 24 9 13 1008.9 1008.9 0.2
20/05:30pm 27.2 29.4 23.9 82 2.3 N 19 30 10 16 1008.3 1008.3 0.2
20/05:00pm 27.3 28.8 23.7 81 2.5 N 22 33 12 18 1008.2 1008.2 0.2
20/04:30pm 28.1 30.1 23.9 78 2.9 N 20 32 11 17 1008.3 1008.3 0.2
20/04:00pm 28.0 29.4 23.6 77 3.0 N 22 33 12 18 1008.7 1008.7 0.2
20/03:30pm 27.6 28.1 24.0 81 2.5 NNE 28 37 15 20 1008.0 1008.0 0.2
20/03:00pm 28.6 29.1 23.9 75 3.3 N 28 35 15 19 1008.4 1008.4 0.2
20/02:30pm 28.6 29.7 23.7 75 3.4 NNE 24 32 13 17 1009.1 1009.1 0.2
20/02:00pm 29.1 31.0 23.8 73 3.7 N 20 28 11 15 1009.5 1009.5 0.2
20/01:30pm 29.4 31.0 24.5 75 3.4 NNE 24 30 13 16 1010.0 1010.0 0.2
20/01:00pm 29.1 30.3 23.8 73 3.7 N 24 32 13 17 1010.4 1010.4 0.2
20/12:30pm 29.4 31.6 24.9 77 3.2 NNE 22 30 12 16 1010.8 1010.8 0.2
20/12:00pm 28.9 31.4 24.7 78 2.9 N 20 30 11 16 1011.3 1011.3 0.2
20/11:30am 28.5 31.3 23.6 75 3.4 N 15 26 8 14 1011.8 1011.8 0.2
20/11:00am 29.0 31.2 23.2 71 4.0 NNW 17 30 9 16 1012.2 1012.2 0.2
20/10:30am 29.3 32.1 23.7 72 3.9 NW 15 24 8 13 1012.2 1012.2 0.2
20/10:00am 29.2 32.1 23.9 73 3.7 NW 15 24 8 13 1012.7 1012.7 0.2
20/09:30am 28.9 31.0 23.1 71 4.0 NNW 17 32 9 17 1013.1 1013.1 0.2
20/09:00am 28.7 31.2 23.8 75 3.4 NW 17 30 9 16 1013.0 1013.0 14.0
20/08:30am 28.3 31.6 23.9 77 3.0 NNW 13 26 7 14 1013.1 1013.1 14.0
20/08:00am 27.6 30.6 23.4 78 2.9 NW 13 24 7 13 1013.0 1013.0 14.0
20/07:30am 27.6 31.4 23.4 78 2.9 NW 9 17 5 9 1012.9 1012.9 14.0
20/07:00am 26.8 30.0 23.1 80 2.5 NW 11 20 6 11 1012.4 1012.4 14.0
20/06:30am 26.2 29.6 23.3 84 2.0 NW 11 19 6 10 1011.8 1011.8 14.0
20/06:00am 25.4 28.8 23.3 88 1.4 NNW 11 19 6 10 1011.6 1011.6 14.0
20/05:30am 25.3 29.0 23.2 88 1.4 NW 9 17 5 9 1011.4 1011.4 14.0
20/05:00am 24.9 28.5 23.0 89 1.3 NNW 9 19 5 10 1011.2 1011.2 13.6
20/04:30am 25.0 28.1 22.9 88 1.4 NNW 11 19 6 10 1010.9 1010.9 11.0
20/04:00am 25.0 28.8 23.4 91 1.1 NNW 9 13 5 7 1010.5 1010.5 8.2
20/03:30am 25.1 28.5 23.3 90 1.2 NNW 11 17 6 9 1010.6 1010.6 6.0
20/03:00am 25.3 29.0 23.9 92 1.0 NNW 11 19 6 10 1010.8 1010.8 6.0
20/02:30am 25.0 28.7 23.2 90 1.2 NNW 9 13 5 7 1011.2 1011.2 6.0
20/02:00am 25.1 28.7 23.0 88 1.4 NNW 9 13 5 7 1011.7 1011.7 6.0
20/01:30am 25.2 28.6 23.4 90 1.2 NNE 11 17 6 9 1011.7 1011.7 6.0
20/01:00am 23.6 28.0 21.3 87 1.5 CALM 0 0 0 0 1012.3 1012.3 6.0
20/12:30am 23.9 27.6 21.4 86 1.6 W 4 6 2 3 1012.9 1012.9 6.0
20/12:00am 25.1 28.9 21.6 81 2.3 NW 4 7 2 4 1013.1 1013.1 6.0
 
Date/Time
EST
Temp
°C
App
Temp
°C
Dew
Point
°C
Rel
Hum
%
Delta-T
°C
Wind Press
QNH
hPa
Press
MSL
hPa
Rain since
9am
mm
Dir  Spd
km/h
Gust
km/h
Spd
kts
Gust
kts
19/11:30pm 25.5 27.5 21.6 79 2.6 N 13 20 7 11 1013.0 1013.0 6.0
19/11:00pm 25.6 26.6 21.1 76 3.0 NNE 17 22 9 12 1013.5 1013.5 6.0
19/10:30pm 25.4 26.5 21.9 81 2.3 NNE 19 22 10 12 1013.6 1013.6 6.0
19/10:00pm 25.5 26.5 22.2 82 2.2 NNE 20 26 11 14 1013.6 1013.6 6.0
19/09:30pm 25.3 24.8 22.2 83 2.1 NE 28 33 15 18 1013.4 1013.4 6.0
19/09:00pm 25.8 24.3 21.7 78 2.7 NE 32 37 17 20 1013.4 1013.4 6.0
19/08:30pm 25.6 25.4 21.3 77 2.8 NNE 24 28 13 15 1013.5 1013.5 6.0
19/08:00pm 25.8 26.1 21.5 77 2.9 NE 22 28 12 15 1013.4 1013.4 6.0
19/07:30pm 25.9 26.7 22.4 81 2.4 NE 22 26 12 14 1012.6 1012.6 6.0
19/07:00pm 25.6 25.2 22.3 82 2.2 NNE 28 35 15 19 1011.7 1011.7 6.0
19/06:30pm 25.1 23.6 21.8 82 2.2 NNE 32 37 17 20 1011.8 1011.8 6.0
19/06:00pm 25.2 25.0 22.1 83 2.1 NNE 26 32 14 17 1011.5 1011.5 6.0
19/05:30pm 25.2 25.2 21.7 81 2.3 NE 24 32 13 17 1011.5 1011.5 6.0
19/05:00pm 25.7 24.5 19.3 67 4.1 NE 24 33 13 18 1011.0 1011.0 6.0
19/04:57pm 25.8 23.9 18.5 64 4.6 NE 26 33 14 18 1011.0 1011.0 6.0
19/04:30pm 23.1 21.5 19.3 79 2.4 NNE 26 67 14 36 1012.0 1012.0 6.0
19/04:29pm 22.5 21.9 19.7 84 1.8 NNE 22 52 12 28 1012.4 1012.4 6.0
19/04:27pm 22.2 22.8 20.3 89 1.2 N 17 41 9 22 1013.2 1013.2 5.8
19/04:00pm 23.3 22.8 18.6 75 3.0 WSW 19 41 10 22 1015.3 1015.3 4.2
19/03:52pm 27.0 29.7 22.8 78 2.8 W 13 24 7 13 1015.0 1015.0 4.2
19/03:30pm 26.6 29.2 22.7 79 2.6 N 13 22 7 12 1013.0 1013.0 4.2
19/03:00pm 26.9 28.7 23.2 80 2.5 N 19 28 10 15 1011.8 1011.8 4.2
19/02:30pm 28.4 28.9 23.3 74 3.5 N 26 33 14 18 1010.7 1010.7 4.2
19/02:00pm 28.9 30.6 24.0 75 3.4 NNE 22 32 12 17 1012.1 1012.1 4.2
19/01:30pm 29.1 29.9 23.1 70 4.1 NNE 24 30 13 16 1013.1 1013.1 4.2
19/01:00pm 28.9 30.0 23.1 71 4.0 NNE 22 30 12 16 1013.5 1013.5 4.2
19/12:30pm 28.8 29.9 23.0 71 4.0 NNE 22 30 12 16 1014.0 1014.0 4.2
19/12:00pm 28.2 29.5 22.7 72 3.7 NNE 20 26 11 14 1014.3 1014.3 4.0
19/11:30am 28.4 30.6 23.3 74 3.5 N 17 24 9 13 1014.6 1014.6 4.0
19/11:00am 28.5 30.1 23.2 73 3.6 NNE 20 26 11 14 1014.9 1014.9 4.0
19/10:30am 28.1 29.9 22.6 72 3.7 N 17 24 9 13 1015.0 1015.0 4.0
19/10:00am 28.1 30.8 22.8 73 3.6 N 13 20 7 11 1015.3 1015.3 4.0
19/09:30am 28.4 31.0 21.9 68 4.4 NNW 11 24 6 13 1015.4 1015.4 2.2
19/09:00am 28.6 31.8 23.1 72 3.8 NNW 11 19 6 10 1015.5 1015.5 3.2
19/08:30am 28.0 31.0 22.7 73 3.6 NNW 11 20 6 11 1015.5 1015.5 1.0
19/08:00am 28.5 31.7 23.0 72 3.8 N 11 20 6 11 1015.1 1015.1 0.8

Other formats

Comma delimited format used in spreadsheet applications
http://www.bom.gov.au/fwo/IDQ60801/IDQ60801.95296.axf

JavaScript Object Notation format (JSON) in row-major order
http://www.bom.gov.au/fwo/IDQ60801/IDQ60801.95296.json

Data quality

Most of these data are generated automatically and are frequently updated. Quality checks on data are not normally performed. It is possible for incorrect values to appear. Refer to information at About Latest Weather Observations and please check the disclaimer before using these data.